createdAt,value
2019-03-22T00:03:26.260Z,3.70
2019-03-22T00:06:07.583Z,3.80
2019-03-22T00:08:49.580Z,3.80
2019-03-22T00:11:31.413Z,3.80
2019-03-22T00:14:13.460Z,3.80
2019-03-22T00:16:55.406Z,3.80
2019-03-22T00:19:37.469Z,3.80
2019-03-22T00:22:19.424Z,3.80
2019-03-22T00:25:01.474Z,3.80
2019-03-22T00:27:43.399Z,3.80
2019-03-22T00:30:25.637Z,3.70
2019-03-22T00:33:07.227Z,3.60
2019-03-22T00:35:49.133Z,3.50
2019-03-22T00:38:31.073Z,3.50
2019-03-22T00:41:13.035Z,3.40
2019-03-22T00:43:54.990Z,3.50
2019-03-22T00:46:37.219Z,3.50
2019-03-22T00:49:18.991Z,3.40
2019-03-22T00:52:00.987Z,3.40
2019-03-22T00:54:42.863Z,3.20
2019-03-22T00:57:28.667Z,3.20
2019-03-22T01:00:08.995Z,3.30
2019-03-22T01:02:50.599Z,3.20
2019-03-22T01:05:32.445Z,3.20
2019-03-22T01:08:15.273Z,3.10
2019-03-22T01:10:56.351Z,3.10
2019-03-22T01:13:38.377Z,3.10
2019-03-22T01:16:20.388Z,3.20
2019-03-22T01:19:02.557Z,3.20
2019-03-22T01:21:44.552Z,3.20
2019-03-22T01:24:26.578Z,3.20
2019-03-22T01:27:08.453Z,3.20
2019-03-22T01:29:50.275Z,3.20
2019-03-22T01:32:32.238Z,3.10
2019-03-22T01:35:14.040Z,3.10
2019-03-22T01:37:56.136Z,3.10
2019-03-22T01:40:38.179Z,3.20
2019-03-22T01:43:20.015Z,3.10
2019-03-22T01:46:01.996Z,3.10
2019-03-22T01:48:43.855Z,3.00
2019-03-22T01:51:26.715Z,3.10
2019-03-22T01:54:08.577Z,3.00
2019-03-22T01:56:50.258Z,3.10
2019-03-22T01:59:32.387Z,3.00
2019-03-22T02:02:14.264Z,2.90
2019-03-22T02:05:16.205Z,2.90
2019-03-22T02:07:58.403Z,2.90
2019-03-22T02:10:40.219Z,2.90
2019-03-22T02:13:22.247Z,2.90
2019-03-22T02:16:04.040Z,2.90
2019-03-22T02:18:46.016Z,2.80
2019-03-22T02:21:27.827Z,3.00
2019-03-22T02:24:10.059Z,2.90
2019-03-22T02:26:52.023Z,2.90
2019-03-22T02:29:33.680Z,2.80
2019-03-22T02:32:15.438Z,2.90
2019-03-22T02:34:57.440Z,2.90
2019-03-22T02:37:39.356Z,2.90
2019-03-22T02:40:21.380Z,2.90
2019-03-22T02:43:05.097Z,2.70
2019-03-22T02:45:46.943Z,2.60
2019-03-22T02:48:28.887Z,2.70
2019-03-22T02:51:10.657Z,2.70
2019-03-22T02:53:52.529Z,2.60
2019-03-22T02:56:34.299Z,2.60
2019-03-22T02:59:16.356Z,2.80
2019-03-22T03:01:58.092Z,2.80
2019-03-22T03:04:40.236Z,2.70
2019-03-22T03:07:22.345Z,2.70
2019-03-22T03:10:04.257Z,2.60
2019-03-22T03:12:46.216Z,2.60
2019-03-22T03:15:29.100Z,2.60
2019-03-22T03:18:11.029Z,2.60
2019-03-22T03:20:53.165Z,2.40
2019-03-22T03:23:35.154Z,2.40
2019-03-22T03:26:16.433Z,2.20
2019-03-22T03:28:58.643Z,2.30
2019-03-22T03:31:40.421Z,2.30
2019-03-22T03:34:22.301Z,2.40
2019-03-22T03:37:04.154Z,2.40
2019-03-22T03:39:45.989Z,2.30
2019-03-22T03:42:28.004Z,2.30
2019-03-22T03:45:09.088Z,2.30
2019-03-22T03:47:51.135Z,2.40
2019-03-22T03:50:33.045Z,2.30
2019-03-22T03:53:15.994Z,2.10
2019-03-22T03:55:58.218Z,2.30
2019-03-22T03:58:51.743Z,2.20
2019-03-22T04:01:24.284Z,2.20
2019-03-22T04:04:06.286Z,2.20
2019-03-22T04:06:48.049Z,2.00
2019-03-22T04:09:30.259Z,2.00
2019-03-22T04:12:12.236Z,2.00
2019-03-22T04:14:53.857Z,1.90
2019-03-22T04:17:35.961Z,1.80
2019-03-22T04:20:17.730Z,1.90
2019-03-22T04:22:59.677Z,2.10
2019-03-22T04:25:41.586Z,2.00
2019-03-22T04:28:23.353Z,1.90
2019-03-22T04:31:05.210Z,1.80
2019-03-22T04:33:47.165Z,1.90
2019-03-22T04:36:29.058Z,1.80
2019-03-22T04:39:11.158Z,2.00
2019-03-22T04:41:52.994Z,1.80
2019-03-22T04:44:35.046Z,1.90
2019-03-22T04:47:16.896Z,1.80
2019-03-22T04:49:58.840Z,1.90
2019-03-22T04:52:40.629Z,1.70
2019-03-22T04:58:03.431Z,1.80
2019-03-22T05:00:45.482Z,1.80
2019-03-22T05:03:27.319Z,1.60
2019-03-22T05:06:09.281Z,1.70
2019-03-22T05:08:52.947Z,1.50
2019-03-22T05:11:34.810Z,1.50
2019-03-22T05:14:16.971Z,1.60
2019-03-22T05:16:58.744Z,1.60
2019-03-22T05:19:40.782Z,1.60
2019-03-22T05:22:22.678Z,1.50
2019-03-22T05:25:04.720Z,1.50
2019-03-22T05:27:53.979Z,1.50
2019-03-22T05:30:35.465Z,1.50
2019-03-22T05:33:17.356Z,1.50
2019-03-22T05:35:59.025Z,1.50
2019-03-22T05:38:40.935Z,1.40
2019-03-22T05:41:22.827Z,1.50
2019-03-22T05:44:04.760Z,1.50
2019-03-22T05:46:48.925Z,1.50
2019-03-22T05:49:29.740Z,1.60
2019-03-22T05:52:11.749Z,1.60
2019-03-22T05:54:54.799Z,1.70
2019-03-22T05:57:36.811Z,1.60
2019-03-22T06:00:18.765Z,1.60
2019-03-22T06:03:00.602Z,1.60
2019-03-22T06:05:42.449Z,1.70
2019-03-22T06:08:24.199Z,1.70
2019-03-22T06:11:06.327Z,1.60
2019-03-22T06:13:48.121Z,1.80
2019-03-22T06:16:30.008Z,1.90
2019-03-22T06:19:11.973Z,1.70
2019-03-22T06:21:53.942Z,1.80
2019-03-22T06:24:35.900Z,1.80
2019-03-22T06:27:18.130Z,1.90
2019-03-22T06:30:00.392Z,1.90
2019-03-22T06:32:42.974Z,1.80
2019-03-22T06:35:24.911Z,2.00
2019-03-22T06:38:06.820Z,2.00
2019-03-22T06:40:48.852Z,2.00
2019-03-22T06:43:31.010Z,2.10
2019-03-22T06:46:13.008Z,2.00
2019-03-22T06:48:54.913Z,2.20
2019-03-22T06:51:36.782Z,2.10
2019-03-22T06:54:30.736Z,2.30
2019-03-22T06:57:03.051Z,2.40
2019-03-22T06:59:44.912Z,2.50
2019-03-22T07:02:12.914Z,2.60
2019-03-22T07:04:54.688Z,2.60
2019-03-22T07:07:36.556Z,2.70
2019-03-22T07:10:18.388Z,2.70
2019-03-22T07:13:00.291Z,2.80
2019-03-22T07:15:42.286Z,2.80
2019-03-22T07:18:24.172Z,3.10
2019-03-22T07:21:06.050Z,3.20
2019-03-22T07:23:48.101Z,3.20
2019-03-22T07:26:30.244Z,3.30
2019-03-22T07:29:12.764Z,3.50
2019-03-22T07:31:55.033Z,3.50
2019-03-22T07:34:36.936Z,3.70
2019-03-22T07:37:19.025Z,3.90
2019-03-22T07:40:00.800Z,4.00
2019-03-22T07:42:42.703Z,4.00
2019-03-22T07:45:24.564Z,4.20
2019-03-22T07:48:06.360Z,4.30
2019-03-22T07:50:48.624Z,4.40
2019-03-22T07:53:30.660Z,4.50
2019-03-22T07:56:12.529Z,4.60
2019-03-22T07:58:54.415Z,4.80
2019-03-22T08:01:35.501Z,5.00
2019-03-22T08:04:17.480Z,5.10
2019-03-22T08:07:01.318Z,5.20
2019-03-22T08:09:42.592Z,5.40
2019-03-22T08:12:24.436Z,5.50
2019-03-22T08:15:08.381Z,5.80
2019-03-22T08:17:50.547Z,5.90
2019-03-22T08:20:31.720Z,6.10
2019-03-22T08:23:13.804Z,6.30
2019-03-22T08:25:55.859Z,6.40
2019-03-22T08:28:37.860Z,6.80
2019-03-22T08:31:19.733Z,7.00
2019-03-22T08:34:01.686Z,7.20
2019-03-22T08:36:43.828Z,7.40
2019-03-22T08:39:25.629Z,7.40
2019-03-22T08:42:07.636Z,7.60
2019-03-22T08:44:49.437Z,7.70
2019-03-22T08:47:34.347Z,8.00
2019-03-22T08:50:14.459Z,8.10
2019-03-22T08:52:56.597Z,8.20
2019-03-22T08:55:38.513Z,8.10
2019-03-22T08:58:20.600Z,8.30
2019-03-22T09:01:02.464Z,8.40
2019-03-22T09:03:44.284Z,8.60
2019-03-22T09:06:26.333Z,8.90
2019-03-22T09:09:08.307Z,8.90
2019-03-22T09:11:50.145Z,8.90
2019-03-22T09:14:32.002Z,9.10
2019-03-22T09:17:14.027Z,9.10
2019-03-22T09:19:56.051Z,9.30
2019-03-22T09:22:38.082Z,9.40
2019-03-22T09:25:20.023Z,9.70
2019-03-22T09:28:01.952Z,10.20
2019-03-22T09:30:43.792Z,10.60
2019-03-22T09:33:25.588Z,10.80
2019-03-22T09:36:07.404Z,11.00
2019-03-22T09:38:49.392Z,11.30
2019-03-22T09:41:31.440Z,11.50
2019-03-22T09:44:13.338Z,11.70
2019-03-22T09:46:55.140Z,12.10
2019-03-22T09:49:38.116Z,12.30
2019-03-22T09:52:21.054Z,12.50
2019-03-22T09:55:13.130Z,12.90
2019-03-22T09:57:49.355Z,13.30
2019-03-22T10:00:30.070Z,13.70
2019-03-22T10:03:11.864Z,14.10
2019-03-22T10:05:53.908Z,14.30
2019-03-22T10:08:35.676Z,14.50
2019-03-22T10:11:17.627Z,14.60
2019-03-22T10:13:59.773Z,14.70
2019-03-22T10:16:41.754Z,14.70
2019-03-22T10:19:22.986Z,15.00
2019-03-22T10:22:04.955Z,15.00
2019-03-22T10:24:47.242Z,15.10
2019-03-22T10:27:29.259Z,15.30
2019-03-22T10:30:10.969Z,15.30
2019-03-22T10:32:52.823Z,15.40
2019-03-22T10:35:34.019Z,15.20
2019-03-22T10:38:16.761Z,15.20
2019-03-22T10:40:59.778Z,15.30
2019-03-22T10:43:41.789Z,15.40
2019-03-22T10:46:23.742Z,15.50
2019-03-22T10:49:05.552Z,15.70
2019-03-22T10:51:57.052Z,15.90
2019-03-22T10:54:31.337Z,16.00
2019-03-22T10:57:13.212Z,16.20
2019-03-22T10:59:55.130Z,16.30
2019-03-22T11:02:37.188Z,16.50
2019-03-22T11:05:19.081Z,16.70
2019-03-22T11:08:01.088Z,16.80
2019-03-22T11:10:42.868Z,16.90
2019-03-22T11:13:24.637Z,17.20
2019-03-22T11:16:06.603Z,17.30
2019-03-22T11:18:49.461Z,17.60
2019-03-22T11:21:31.367Z,17.70
2019-03-22T11:24:13.352Z,17.70
2019-03-22T11:26:55.245Z,17.80
2019-03-22T11:29:37.212Z,17.80
2019-03-22T11:32:19.303Z,18.00
2019-03-22T11:35:01.093Z,17.90
2019-03-22T11:37:42.831Z,18.10
2019-03-22T11:40:24.976Z,18.30
2019-03-22T11:43:08.785Z,18.30
2019-03-22T11:45:51.112Z,18.40
2019-03-22T11:48:34.165Z,18.50
2019-03-22T11:51:16.016Z,18.40
2019-03-22T11:53:57.877Z,18.40
2019-03-22T11:56:39.588Z,18.40
2019-03-22T11:59:20.731Z,18.40
2019-03-22T12:02:02.728Z,18.40
2019-03-22T12:04:44.649Z,18.50
2019-03-22T12:07:26.579Z,18.70
2019-03-22T12:10:08.524Z,18.80
2019-03-22T12:12:50.576Z,18.90
2019-03-22T12:15:33.412Z,19.00
2019-03-22T12:18:15.268Z,18.90
2019-03-22T12:20:57.128Z,18.80
2019-03-22T12:23:39.097Z,18.90
2019-03-22T12:26:21.161Z,18.90
2019-03-22T12:29:03.046Z,19.00
2019-03-22T12:31:45.128Z,19.10
2019-03-22T12:34:27.201Z,19.20
2019-03-22T12:37:09.240Z,19.20
2019-03-22T12:39:51.093Z,19.10
2019-03-22T12:42:33.268Z,19.00
2019-03-22T12:45:15.371Z,19.10
2019-03-22T12:47:57.147Z,19.20
2019-03-22T12:50:40.239Z,19.30
2019-03-22T12:53:22.311Z,19.40
2019-03-22T12:56:04.298Z,19.30
2019-03-22T12:58:46.406Z,19.10
2019-03-22T13:01:28.240Z,19.00
2019-03-22T13:04:10.231Z,18.90
2019-03-22T13:06:53.183Z,18.80
2019-03-22T13:09:54.328Z,18.70
2019-03-22T13:12:36.548Z,18.90
2019-03-22T13:15:18.355Z,18.70
2019-03-22T13:18:00.481Z,18.60
2019-03-22T13:20:42.384Z,18.60
2019-03-22T13:23:24.136Z,18.40
2019-03-22T13:26:06.110Z,18.30
2019-03-22T13:28:48.150Z,18.30
2019-03-22T13:31:30.146Z,18.30
2019-03-22T13:34:11.956Z,18.40
2019-03-22T13:36:53.158Z,18.40
2019-03-22T13:39:35.059Z,18.40
2019-03-22T13:42:17.113Z,18.40
2019-03-22T13:45:00.011Z,18.30
2019-03-22T13:47:41.831Z,18.20
2019-03-22T13:50:23.712Z,18.30
2019-03-22T13:53:05.680Z,18.40
2019-03-22T13:55:47.511Z,18.50
2019-03-22T13:58:29.440Z,18.50
2019-03-22T14:01:13.339Z,18.50
2019-03-22T14:03:55.132Z,18.40
2019-03-22T14:06:37.120Z,18.40
2019-03-22T14:09:18.972Z,18.40
2019-03-22T14:12:00.776Z,18.50
2019-03-22T14:14:42.627Z,18.50
2019-03-22T14:17:24.231Z,18.40
2019-03-22T14:20:11.285Z,18.40
2019-03-22T14:22:50.564Z,18.40
2019-03-22T14:25:32.609Z,18.30
2019-03-22T14:28:14.687Z,18.40
2019-03-22T14:30:55.688Z,18.30
2019-03-22T14:33:37.764Z,18.40
2019-03-22T14:36:19.740Z,18.50
2019-03-22T14:39:01.727Z,18.30
2019-03-22T14:41:45.424Z,18.30
2019-03-22T14:44:28.271Z,18.30
2019-03-22T14:47:10.183Z,18.30
2019-03-22T14:49:38.362Z,18.20
2019-03-22T14:52:20.128Z,18.10
2019-03-22T14:55:02.001Z,18.10
2019-03-22T14:57:49.104Z,18.10
2019-03-22T15:00:27.760Z,18.20
2019-03-22T15:02:55.845Z,18.10
2019-03-22T15:05:38.023Z,18.10
2019-03-22T15:08:20.029Z,18.10
2019-03-22T15:11:01.967Z,18.10
2019-03-22T15:14:37.423Z,18.10
2019-03-22T15:17:40.569Z,18.00
2019-03-22T15:20:42.757Z,17.90
2019-03-22T15:23:44.912Z,17.90
2019-03-22T15:26:47.889Z,17.90
2019-03-22T15:29:52.118Z,17.80
2019-03-22T15:32:59.432Z,17.70
2019-03-22T15:36:00.710Z,17.60
2019-03-22T15:38:51.777Z,17.70
2019-03-22T15:41:49.107Z,17.60
2019-03-22T15:49:54.834Z,17.60
2019-03-22T15:52:36.793Z,17.50
2019-03-22T15:55:18.745Z,17.40
2019-03-22T15:58:00.639Z,17.40
2019-03-22T16:00:42.319Z,17.30
2019-03-22T16:03:24.444Z,17.20
2019-03-22T16:06:06.281Z,17.20
2019-03-22T16:08:48.220Z,17.10
2019-03-22T16:11:30.101Z,17.00
2019-03-22T16:14:12.062Z,17.10
2019-03-22T16:16:54.080Z,16.90
2019-03-22T16:19:35.771Z,16.90
2019-03-22T16:22:17.764Z,16.80
2019-03-22T16:24:59.560Z,16.70
2019-03-22T16:27:41.793Z,16.70
2019-03-22T16:30:23.634Z,16.70
2019-03-22T16:33:05.580Z,16.50
2019-03-22T16:35:47.507Z,16.40
2019-03-22T16:38:29.325Z,16.40
2019-03-22T16:41:11.304Z,16.30
2019-03-22T16:43:53.280Z,16.10
2019-03-22T16:46:35.013Z,16.10
2019-03-22T16:49:19.140Z,15.90
2019-03-22T16:52:01.120Z,15.80
2019-03-22T16:54:42.944Z,15.60
2019-03-22T16:57:44.261Z,15.50
2019-03-22T17:00:28.359Z,15.10
2019-03-22T17:03:09.970Z,15.20
2019-03-22T17:05:51.967Z,15.00
2019-03-22T17:08:33.776Z,14.80
2019-03-22T17:11:15.593Z,14.70
2019-03-22T17:13:57.374Z,14.50
2019-03-22T17:16:39.515Z,14.40
2019-03-22T17:19:21.399Z,14.40
2019-03-22T17:22:03.213Z,14.20
2019-03-22T17:24:45.119Z,14.20
2019-03-22T17:27:27.057Z,14.10
2019-03-22T17:30:09.008Z,13.90
2019-03-22T17:32:51.023Z,13.80
2019-03-22T17:35:33.035Z,13.70
2019-03-22T17:38:15.198Z,13.60
2019-03-22T17:40:57.007Z,13.40
2019-03-22T17:43:38.892Z,13.30
2019-03-22T17:46:20.867Z,13.20
2019-03-22T17:49:02.491Z,13.00
2019-03-22T17:51:44.327Z,13.00
2019-03-22T17:54:26.277Z,12.90
2019-03-22T17:57:08.328Z,12.60
2019-03-22T17:59:50.435Z,12.70
2019-03-22T18:02:32.305Z,12.60
2019-03-22T18:05:14.080Z,12.50
2019-03-22T18:07:55.827Z,12.30
2019-03-22T18:10:37.647Z,12.20
2019-03-22T18:13:19.512Z,12.10
2019-03-22T18:16:01.458Z,12.10
2019-03-22T18:18:43.493Z,11.90
2019-03-22T18:21:25.401Z,11.80
2019-03-22T18:24:07.527Z,11.70
2019-03-22T18:26:49.552Z,11.70
2019-03-22T18:29:31.420Z,11.60
2019-03-22T18:32:13.238Z,11.50
2019-03-22T18:34:55.415Z,11.30
2019-03-22T18:37:37.385Z,11.20
2019-03-22T18:40:19.333Z,11.20
2019-03-22T18:43:01.371Z,11.00
2019-03-22T18:45:43.340Z,10.90
2019-03-22T18:48:25.275Z,10.80
2019-03-22T18:51:07.233Z,10.80
2019-03-22T18:53:49.156Z,10.80
2019-03-22T18:56:31.183Z,10.60
2019-03-22T18:59:13.020Z,10.60
2019-03-22T19:01:54.928Z,10.50
2019-03-22T19:04:43.965Z,10.40
2019-03-22T19:07:20.792Z,10.30
2019-03-22T19:10:02.824Z,10.20
2019-03-22T19:12:44.735Z,10.20
2019-03-22T19:15:26.872Z,10.20
2019-03-22T19:18:08.676Z,10.10
2019-03-22T19:20:50.711Z,10.00
2019-03-22T19:23:33.884Z,10.00
2019-03-22T19:26:16.007Z,9.70
2019-03-22T19:28:57.967Z,9.80
2019-03-22T19:31:40.818Z,9.70
2019-03-22T19:34:21.916Z,9.60
2019-03-22T19:37:03.955Z,9.60
2019-03-22T19:39:46.028Z,9.50
2019-03-22T19:42:27.940Z,9.60
2019-03-22T19:45:10.011Z,9.50
2019-03-22T19:47:51.999Z,9.40
2019-03-22T19:50:34.108Z,9.30
2019-03-22T19:53:15.915Z,9.30
2019-03-22T19:55:57.796Z,9.20
2019-03-22T19:58:39.835Z,9.20
2019-03-22T20:01:21.800Z,9.10
2019-03-22T20:04:03.782Z,9.10
2019-03-22T20:06:45.772Z,9.00
2019-03-22T20:09:27.609Z,9.00
2019-03-22T20:12:09.635Z,8.90
2019-03-22T20:14:51.589Z,8.80
2019-03-22T20:17:33.648Z,8.90
2019-03-22T20:20:15.605Z,8.70
2019-03-22T20:22:57.379Z,8.60
2019-03-22T20:25:39.210Z,8.60
2019-03-22T20:28:21.060Z,8.50
2019-03-22T20:31:03.953Z,8.50
2019-03-22T20:33:45.799Z,8.40
2019-03-22T20:36:28.509Z,8.40
2019-03-22T20:39:10.188Z,8.20
2019-03-22T20:41:52.308Z,8.30
2019-03-22T20:44:34.398Z,8.20
2019-03-22T20:47:16.063Z,8.10
2019-03-22T20:49:57.989Z,8.10
2019-03-22T20:52:40.259Z,8.20
2019-03-22T20:55:22.020Z,8.10
2019-03-22T20:58:03.999Z,8.20
2019-03-22T21:00:45.787Z,8.10
2019-03-22T21:03:27.853Z,8.10
2019-03-22T21:06:09.789Z,7.90
2019-03-22T21:08:51.537Z,7.90
2019-03-22T21:11:34.328Z,7.90
2019-03-22T21:16:58.249Z,7.80
2019-03-22T21:19:40.162Z,7.70
2019-03-22T21:27:43.906Z,7.50
2019-03-22T21:30:25.827Z,7.50
2019-03-22T21:33:07.672Z,7.50
2019-03-22T21:35:49.823Z,7.20
2019-03-22T21:38:31.979Z,7.30
2019-03-22T21:41:00.114Z,7.20
2019-03-22T21:43:41.979Z,7.10
2019-03-22T21:46:23.916Z,7.10
2019-03-22T21:49:05.731Z,7.00
2019-03-22T21:51:48.211Z,7.00
2019-03-22T21:54:30.208Z,7.00
2019-03-22T21:57:12.039Z,6.90
2019-03-22T21:59:40.015Z,7.10
2019-03-22T22:02:22.051Z,6.90
2019-03-22T22:05:03.967Z,6.90
2019-03-22T22:07:46.051Z,6.80
2019-03-22T22:10:27.839Z,6.80
2019-03-22T22:13:09.901Z,6.70
2019-03-22T22:15:53.950Z,6.70
2019-03-22T22:18:35.947Z,6.60
2019-03-22T22:21:17.820Z,6.60
2019-03-22T22:23:59.955Z,6.50
2019-03-22T22:26:41.948Z,6.60
2019-03-22T22:29:23.884Z,6.60
2019-03-22T22:32:05.659Z,6.60
2019-03-22T22:34:48.847Z,6.70
2019-03-22T22:37:30.837Z,6.70
2019-03-22T22:40:12.030Z,6.60
2019-03-22T22:42:54.091Z,6.60
2019-03-22T22:45:36.115Z,6.60
2019-03-22T22:48:18.139Z,6.50
2019-03-22T22:51:00.100Z,6.50
2019-03-22T22:53:42.240Z,6.40
2019-03-22T22:56:24.143Z,6.50
2019-03-22T22:59:05.903Z,6.50
2019-03-22T23:01:47.708Z,6.50
2019-03-22T23:04:32.182Z,6.40
2019-03-22T23:07:14.656Z,6.40
2019-03-22T23:09:56.299Z,6.40
2019-03-22T23:12:38.224Z,6.40
2019-03-22T23:15:20.164Z,6.30
2019-03-22T23:18:04.184Z,6.20
2019-03-22T23:20:46.164Z,6.20
2019-03-22T23:23:28.089Z,6.20
2019-03-22T23:26:10.029Z,6.20
2019-03-22T23:28:51.827Z,6.20
2019-03-22T23:31:33.944Z,6.20
2019-03-22T23:34:15.833Z,6.20
2019-03-22T23:36:59.548Z,6.20
2019-03-22T23:39:41.327Z,6.10
2019-03-22T23:42:23.216Z,6.00
2019-03-22T23:45:05.087Z,6.00
2019-03-22T23:47:47.016Z,5.90
2019-03-22T23:50:28.815Z,5.90
2019-03-22T23:53:11.053Z,5.80
2019-03-22T23:55:54.743Z,5.80
2019-03-22T23:58:36.865Z,5.60
